Time;durP1;ratioP1;P1;durP2;ratioP2;P2;SDS_P1;SDS_P2;PMS_P1;PMS_P2;Temp;Humidity;BMP_temperature;BMP_pressure;BME280_temperature;BME280_humidity;BME280_pressure;Samples;Min_cycle;Max_cycle;Signal;HPM_P1;HPM_P2
2023/09/08 00:00:27;;;;;;;0.00;0.00;;;;;;;21.14;100.00;101611.28;5093618;28;20070;-47
2023/09/08 00:02:52;;;;;;;0.00;0.00;;;;;;;21.11;100.00;101610.94;5102311;28;20028;-47
2023/09/08 00:05:18;;;;;;;0.00;0.00;;;;;;;21.07;100.00;101605.09;5091507;28;20385;-46
2023/09/08 00:07:43;;;;;;;0.00;0.00;;;;;;;21.04;100.00;101613.78;5103098;28;20037;-45
2023/09/08 00:10:08;;;;;;;0.00;0.00;;;;;;;21.01;100.00;101606.00;5110733;28;20027;-48
2023/09/08 00:12:34;;;;;;;0.00;0.00;;;;;;;20.97;100.00;101613.03;5106181;28;20055;-49
2023/09/08 00:14:59;;;;;;;0.00;0.00;;;;;;;20.95;100.00;101612.41;5091139;28;20031;-48
2023/09/08 00:17:25;;;;;;;0.00;0.00;;;;;;;20.92;100.00;101615.63;5091082;28;20085;-49
2023/09/08 00:19:50;;;;;;;0.00;0.00;;;;;;;20.89;100.00;101605.97;5090856;28;20356;-48
2023/09/08 00:22:16;;;;;;;0.00;0.00;;;;;;;20.84;100.00;101605.84;5092467;28;20036;-46
2023/09/08 00:24:41;;;;;;;0.00;0.00;;;;;;;20.72;100.00;101607.69;5111505;28;20027;-47
2023/09/08 00:27:06;;;;;;;0.00;0.00;;;;;;;20.63;100.00;101609.06;5111361;28;20030;-51
2023/09/08 00:29:32;;;;;;;0.00;0.00;;;;;;;20.53;100.00;101620.50;5111007;28;20043;-48
2023/09/08 00:31:57;;;;;;;0.00;0.00;;;;;;;20.51;100.00;101617.16;5111213;28;20492;-50
2023/09/08 00:34:22;;;;;;;0.00;0.00;;;;;;;20.55;100.00;101619.25;5095051;28;20054;-50
2023/09/08 00:36:48;;;;;;;0.00;0.00;;;;;;;20.58;100.00;101617.97;5091031;28;20455;-48
2023/09/08 00:39:13;;;;;;;0.00;0.00;;;;;;;20.62;100.00;101621.91;5090916;28;20020;-50
2023/09/08 00:41:38;;;;;;;0.00;0.00;;;;;;;20.64;100.00;101611.56;5106367;28;20023;-49
2023/09/08 00:44:04;;;;;;;0.00;0.00;;;;;;;20.65;100.00;101613.25;5094231;28;20108;-46
2023/09/08 00:46:30;;;;;;;0.00;0.00;;;;;;;20.64;100.00;101613.47;5090892;28;20512;-47
2023/09/08 00:48:56;;;;;;;0.00;0.00;;;;;;;20.60;100.00;101613.09;5091361;28;20016;-47
2023/09/08 00:51:21;;;;;;;0.00;0.00;;;;;;;20.59;100.00;101625.13;5090958;28;20133;-49
2023/09/08 00:53:47;;;;;;;0.00;0.00;;;;;;;20.56;100.00;101614.63;5090269;28;20024;-48
2023/09/08 00:56:12;;;;;;;0.00;0.00;;;;;;;20.51;100.00;101614.44;5090450;28;20087;-48
2023/09/08 00:58:38;;;;;;;0.00;0.00;;;;;;;20.49;100.00;101617.41;5090442;28;20032;-48
2023/09/08 01:01:05;;;;;;;0.00;0.00;;;;;;;20.47;100.00;101627.75;5090149;28;20050;-50
2023/09/08 01:03:31;;;;;;;0.00;0.00;;;;;;;20.45;100.00;101612.63;5102909;28;20051;-47
2023/09/08 01:05:56;;;;;;;0.00;0.00;;;;;;;20.45;100.00;101618.09;5103693;28;20059;-46
2023/09/08 01:08:21;;;;;;;0.00;0.00;;;;;;;20.46;100.00;101619.75;5097597;28;20077;-50
2023/09/08 01:10:47;;;;;;;0.00;0.00;;;;;;;20.44;100.00;101611.78;5108856;28;20382;-48
2023/09/08 01:13:13;;;;;;;0.00;0.00;;;;;;;20.47;100.00;101610.50;5100304;28;20047;-47
2023/09/08 01:15:38;;;;;;;0.00;0.00;;;;;;;20.47;100.00;101613.25;5108920;28;20024;-51
2023/09/08 01:18:04;;;;;;;0.00;0.00;;;;;;;20.48;100.00;101613.00;5096279;28;20371;-49
2023/09/08 01:20:55;;;;;;;0.00;0.00;;;;;;;20.51;100.00;101622.63;5090205;28;20028;-50
2023/09/08 01:23:23;;;;;;;0.00;0.00;;;;;;;20.49;100.00;101613.84;5091137;28;20277;-49
2023/09/08 01:26:08;;;;;;;0.00;0.00;;;;;;;20.44;100.00;101616.44;5110200;28;20496;-52
2023/09/08 01:28:33;;;;;;;0.00;0.00;;;;;;;20.38;100.00;101612.72;5108173;28;20035;-49
2023/09/08 01:30:59;;;;;;;0.00;0.00;;;;;;;20.33;100.00;101610.66;5109064;28;20034;-51
2023/09/08 01:33:25;;;;;;;0.00;0.00;;;;;;;20.22;100.00;101603.22;5105945;28;20076;-47
2023/09/08 01:35:51;;;;;;;0.00;0.00;;;;;;;20.20;100.00;101608.09;5104854;28;20024;-46
2023/09/08 01:38:16;;;;;;;0.00;0.00;;;;;;;20.19;100.00;101609.13;5093327;28;20024;-48
2023/09/08 01:40:41;;;;;;;0.30;0.00;;;;;;;20.17;100.00;101606.63;5090074;28;20036;-48
2023/09/08 01:43:07;;;;;;;0.00;0.00;;;;;;;20.16;100.00;101615.88;5093601;28;20169;-48
2023/09/08 01:45:32;;;;;;;0.00;0.00;;;;;;;20.14;100.00;101604.38;5111963;28;20206;-47
2023/09/08 01:47:58;;;;;;;0.00;0.00;;;;;;;20.11;100.00;101602.06;5106923;28;20035;-48
2023/09/08 01:50:24;;;;;;;0.00;0.00;;;;;;;20.11;100.00;101606.69;5099685;28;20160;-50
2023/09/08 01:52:50;;;;;;;0.00;0.00;;;;;;;20.08;100.00;101605.25;5095013;28;20031;-51
2023/09/08 01:55:16;;;;;;;0.00;0.00;;;;;;;20.04;100.00;101611.41;5103234;28;20031;-48
2023/09/08 01:57:42;;;;;;;0.00;0.00;;;;;;;20.02;100.00;101603.44;5094055;28;20133;-50
2023/09/08 02:00:08;;;;;;;0.00;0.00;;;;;;;19.98;100.00;101615.88;5107209;28;20069;-46
2023/09/08 02:02:34;;;;;;;0.00;0.00;;;;;;;19.96;100.00;101609.81;5113038;28;20465;-50
2023/09/08 02:04:59;;;;;;;0.00;0.00;;;;;;;19.94;100.00;101606.47;5113709;28;20038;-48
2023/09/08 02:07:24;;;;;;;0.00;0.00;;;;;;;19.90;100.00;101595.13;5106753;28;20434;-44
2023/09/08 02:09:50;;;;;;;0.00;0.00;;;;;;;19.89;100.00;101609.88;5113319;27;20032;-44
2023/09/08 02:12:15;;;;;;;0.00;0.00;;;;;;;19.88;100.00;101601.88;5107990;28;20073;-47
2023/09/08 02:14:40;;;;;;;0.00;0.00;;;;;;;19.86;100.00;101610.31;5107844;28;20436;-46
2023/09/08 02:17:06;;;;;;;0.00;0.00;;;;;;;19.84;100.00;101604.25;5095903;28;20051;-49
2023/09/08 02:19:31;;;;;;;0.00;0.00;;;;;;;19.81;100.00;101596.50;5113234;28;20030;-48
2023/09/08 02:21:57;;;;;;;0.00;0.00;;;;;;;19.77;100.00;101603.47;5101387;28;20016;-51
2023/09/08 02:24:22;;;;;;;0.00;0.00;;;;;;;19.76;100.00;101604.53;5095295;28;20039;-46
2023/09/08 02:26:48;;;;;;;0.00;0.00;;;;;;;19.76;100.00;101607.25;5107321;28;20028;-47
2023/09/08 02:29:13;;;;;;;0.00;0.00;;;;;;;19.75;100.00;101602.88;5111278;28;20050;-46
2023/09/08 02:31:38;;;;;;;0.00;0.00;;;;;;;19.73;100.00;101605.81;5095123;28;20054;-45
2023/09/08 02:34:04;;;;;;;0.00;0.00;;;;;;;19.75;100.00;101602.88;5093686;28;20032;-48
2023/09/08 02:36:29;;;;;;;0.00;0.00;;;;;;;19.72;100.00;101603.28;5094166;28;20032;-48
2023/09/08 02:38:55;;;;;;;0.00;0.00;;;;;;;19.70;100.00;101606.28;5093742;28;20119;-46
2023/09/08 02:41:21;;;;;;;0.00;0.00;;;;;;;19.67;100.00;101600.44;5092250;28;20465;-48
2023/09/08 02:43:47;;;;;;;0.00;0.00;;;;;;;19.61;100.00;101604.00;5093268;28;20032;-48
2023/09/08 02:46:13;;;;;;;0.00;0.00;;;;;;;19.57;100.00;101605.53;5101298;28;20035;-48
2023/09/08 02:48:38;;;;;;;0.00;0.00;;;;;;;19.52;100.00;101608.91;5113573;28;20031;-48
2023/09/08 02:51:04;;;;;;;0.00;0.00;;;;;;;19.52;100.00;101611.66;5113092;28;20443;-50
2023/09/08 02:53:29;;;;;;;0.00;0.00;;;;;;;19.48;100.00;101603.06;5095214;28;20028;-45
2023/09/08 02:55:55;;;;;;;0.00;0.00;;;;;;;19.47;100.00;101597.81;5098361;28;20026;-47
2023/09/08 02:58:21;;;;;;;0.00;0.00;;;;;;;19.45;100.00;101608.13;5113343;28;20443;-47
2023/09/08 03:00:46;;;;;;;0.00;0.00;;;;;;;19.45;100.00;101606.22;5113165;28;20181;-50
2023/09/08 03:03:12;;;;;;;0.00;0.00;;;;;;;19.42;100.00;101609.41;5112806;28;20080;-48
2023/09/08 03:05:37;;;;;;;0.00;0.00;;;;;;;19.40;100.00;101606.06;5112268;28;20111;-48
2023/09/08 03:08:03;;;;;;;0.00;0.00;;;;;;;19.37;100.00;101611.97;5113004;28;20107;-46
2023/09/08 03:10:28;;;;;;;0.00;0.00;;;;;;;19.38;100.00;101610.94;5112898;28;20020;-47
2023/09/08 03:12:54;;;;;;;0.00;0.00;;;;;;;19.37;100.00;101609.22;5112609;28;20039;-50
2023/09/08 03:15:19;;;;;;;0.00;0.00;;;;;;;19.37;100.00;101611.97;5112383;28;20043;-48
2023/09/08 03:17:44;;;;;;;0.00;0.00;;;;;;;19.35;100.00;101602.31;5105566;27;20484;-49
2023/09/08 03:20:10;;;;;;;0.00;0.00;;;;;;;19.33;100.00;101602.56;5112436;28;20024;-47
2023/09/08 03:22:36;;;;;;;0.00;0.00;;;;;;;19.32;100.00;101598.13;5096940;28;20033;-48
2023/09/08 03:25:01;;;;;;;0.00;0.00;;;;;;;19.29;100.00;101598.59;5112814;28;20023;-49
2023/09/08 03:27:26;;;;;;;0.00;0.00;;;;;;;19.30;100.00;101597.56;5104920;28;20028;-48
2023/09/08 03:29:52;;;;;;;0.00;0.00;;;;;;;19.28;100.00;101591.47;5099990;28;20555;-49
2023/09/08 03:32:17;;;;;;;0.00;0.00;;;;;;;19.30;100.00;101594.81;5104375;28;20020;-47
2023/09/08 03:34:43;;;;;;;0.00;0.00;;;;;;;19.32;100.00;101598.13;5093272;28;20024;-47
2023/09/08 03:37:08;;;;;;;0.00;0.00;;;;;;;19.32;100.00;101587.22;5103106;28;20427;-46
2023/09/08 03:39:33;;;;;;;0.00;0.00;;;;;;;19.30;100.00;101586.63;5102710;28;20035;-48
2023/09/08 03:41:59;;;;;;;0.00;0.00;;;;;;;19.21;100.00;101577.03;5112320;28;20024;-46
2023/09/08 03:44:24;;;;;;;0.00;0.00;;;;;;;19.12;100.00;101581.09;5095016;28;20020;-48
2023/09/08 03:46:49;;;;;;;0.00;0.00;;;;;;;19.07;100.00;101579.84;5098852;28;20020;-46
2023/09/08 03:49:15;;;;;;;0.00;0.00;;;;;;;19.05;100.00;101584.69;5112280;28;20052;-47
2023/09/08 03:51:40;;;;;;;0.00;0.00;;;;;;;19.04;100.00;101585.75;5097343;28;20058;-48
2023/09/08 03:54:05;;;;;;;0.00;0.00;;;;;;;19.02;100.00;101590.59;5100342;28;20138;-47
2023/09/08 03:56:31;;;;;;;0.00;0.00;;;;;;;19.03;100.00;101584.06;5107122;27;20092;-49
2023/09/08 03:58:56;;;;;;;0.00;0.00;;;;;;;19.03;100.00;101589.53;5092057;28;20479;-45
2023/09/08 04:01:22;;;;;;;0.00;0.00;;;;;;;19.02;100.00;101587.88;5091363;28;20571;-45
2023/09/08 04:03:47;;;;;;;0.00;0.00;;;;;;;19.01;100.00;101588.06;5107245;28;20031;-45
2023/09/08 04:06:12;;;;;;;0.00;0.00;;;;;;;19.00;100.00;101587.25;5108930;27;20063;-47
2023/09/08 04:08:38;;;;;;;0.00;0.00;;;;;;;18.98;100.00;101586.63;5105778;28;20035;-45
2023/09/08 04:11:03;;;;;;;0.00;0.00;;;;;;;18.93;100.00;101593.78;5111639;28;20019;-49
2023/09/08 04:13:28;;;;;;;0.00;0.00;;;;;;;18.89;100.00;101592.56;5111479;28;20055;-48
2023/09/08 04:15:54;;;;;;;0.00;0.00;;;;;;;18.86;100.00;101594.69;5111642;28;20080;-46
2023/09/08 04:18:19;;;;;;;0.00;0.00;;;;;;;18.84;100.00;101598.69;5109747;28;20035;-48
2023/09/08 04:20:44;;;;;;;0.00;0.00;;;;;;;18.84;100.00;101596.78;5096739;28;20482;-49
2023/09/08 04:23:10;;;;;;;0.00;0.00;;;;;;;18.86;100.00;101593.84;5089719;28;20028;-48
2023/09/08 04:25:36;;;;;;;0.00;0.00;;;;;;;18.84;100.00;101595.94;5089751;28;20032;-48
2023/09/08 04:28:02;;;;;;;0.00;0.00;;;;;;;18.83;100.00;101600.56;5089164;28;20081;-46
2023/09/08 04:30:27;;;;;;;0.00;0.00;;;;;;;18.84;100.00;101591.31;5089087;28;20432;-48
2023/09/08 04:32:52;;;;;;;0.00;0.00;;;;;;;18.83;100.00;101594.28;5089280;28;20382;-46
2023/09/08 04:35:18;;;;;;;0.00;0.00;;;;;;;18.83;100.00;101600.56;5098892;28;20080;-46
2023/09/08 04:37:43;;;;;;;0.00;0.00;;;;;;;18.86;100.00;101593.84;5101945;28;20028;-47
2023/09/08 04:40:09;;;;;;;0.00;0.00;;;;;;;18.83;100.00;101599.75;5088910;28;20036;-47
2023/09/08 04:42:35;;;;;;;0.00;0.00;;;;;;;18.79;100.00;101603.94;5089056;28;20028;-48
2023/09/08 04:45:00;;;;;;;0.00;0.00;;;;;;;18.79;100.00;101609.41;5088901;28;20066;-47
2023/09/08 04:47:25;;;;;;;0.00;0.00;;;;;;;18.79;100.00;101609.41;5093797;28;20128;-47
2023/09/08 04:49:51;;;;;;;0.00;0.00;;;;;;;18.80;100.00;101602.88;5105418;28;20024;-47
2023/09/08 04:52:16;;;;;;;0.00;0.00;;;;;;;18.75;100.00;101598.09;5088216;28;20055;-51
2023/09/08 04:54:42;;;;;;;0.00;0.00;;;;;;;18.71;100.00;101602.28;5088725;28;20040;-50
2023/09/08 04:57:07;;;;;;;0.00;0.00;;;;;;;18.70;100.00;101594.34;5087103;28;20036;-45
2023/09/08 04:59:33;;;;;;;0.00;0.00;;;;;;;18.71;100.00;101601.44;5102253;28;20052;-51
2023/09/08 05:01:59;;;;;;;0.00;0.00;;;;;;;18.71;100.00;101601.44;5107569;28;20155;-48
2023/09/08 05:04:24;;;;;;;0.00;0.00;;;;;;;18.75;100.00;101608.19;5108878;28;20020;-51
2023/09/08 05:06:49;;;;;;;0.00;0.00;;;;;;;18.76;100.00;101607.13;5105524;28;20429;-46
2023/09/08 05:09:15;;;;;;;0.00;0.00;;;;;;;18.76;100.00;101598.94;5090922;28;20036;-49
2023/09/08 05:11:40;;;;;;;0.00;0.00;;;;;;;18.76;100.00;101601.66;5092458;28;20028;-48
2023/09/08 05:14:06;;;;;;;0.00;0.00;;;;;;;18.73;100.00;101604.78;5091745;28;20070;-47
2023/09/08 05:16:39;;;;;;;0.00;0.00;;;;;;;18.73;100.00;101599.34;5095218;28;20024;-49
2023/09/08 05:19:05;;;;;;;0.00;0.00;;;;;;;18.70;100.00;101606.06;5107319;28;20538;-50
2023/09/08 05:21:31;;;;;;;0.00;0.00;;;;;;;18.70;100.00;101605.25;5103083;28;20027;-49
2023/09/08 05:23:56;;;;;;;0.00;0.00;;;;;;;18.69;100.00;101619.91;5095781;28;20027;-49
2023/09/08 05:26:22;;;;;;;0.00;0.00;;;;;;;18.69;100.00;101620.72;5095441;28;20402;-48
2023/09/08 05:28:47;;;;;;;0.00;0.00;;;;;;;18.68;100.00;101608.16;5095247;28;20034;-50
2023/09/08 05:31:12;;;;;;;0.00;0.00;;;;;;;18.72;100.00;101612.16;5109145;28;20032;-50
2023/09/08 05:33:38;;;;;;;0.00;0.00;;;;;;;18.75;100.00;101614.47;5114813;28;20129;-51
2023/09/08 05:36:04;;;;;;;0.00;0.00;;;;;;;18.77;100.00;101606.03;5104623;28;20027;-49
2023/09/08 05:38:29;;;;;;;0.00;0.00;;;;;;;18.84;100.00;101606.84;5109710;28;20455;-47
2023/09/08 05:40:55;;;;;;;0.00;0.00;;;;;;;19.06;100.00;101610.94;5111980;28;20112;-49
2023/09/08 05:43:21;;;;;;;0.00;0.00;;;;;;;19.56;100.00;101622.94;5094734;28;20020;-48
2023/09/08 05:45:46;;;;;;;0.00;0.00;;;;;;;20.13;100.00;101620.97;5106938;28;20019;-50
2023/09/08 05:48:11;;;;;;;0.00;0.00;;;;;;;20.70;100.00;101605.19;5095200;28;20027;-47
2023/09/08 05:50:37;;;;;;;0.00;0.00;;;;;;;21.32;100.00;101593.94;5101136;28;20107;-48
2023/09/08 05:53:02;;;;;;;0.00;0.00;;;;;;;21.83;100.00;101591.66;5104814;28;20044;-46
2023/09/08 05:55:28;;;;;;;0.00;0.00;;;;;;;22.12;100.00;101570.66;5105605;28;20477;-51
2023/09/08 05:57:53;;;;;;;0.00;0.00;;;;;;;22.14;100.00;101583.03;5097040;28;20039;-48
2023/09/08 06:00:19;;;;;;;0.00;0.00;;;;;;;22.03;100.00;101581.13;5097670;28;20047;-48
2023/09/08 06:02:45;;;;;;;0.00;0.00;;;;;;;22.08;100.00;101589.47;5105583;28;20019;-50
2023/09/08 06:05:10;;;;;;;0.00;0.00;;;;;;;22.10;100.00;101592.81;5110195;28;20066;-48
2023/09/08 06:07:35;;;;;;;0.00;0.00;;;;;;;21.93;100.00;101591.88;5102210;28;20038;-49
2023/09/08 06:10:01;;;;;;;0.00;0.00;;;;;;;21.70;100.00;101596.31;5097821;28;20170;-46
2023/09/08 06:12:26;;;;;;;0.00;0.00;;;;;;;21.43;100.00;101593.19;5106957;28;20114;-47
2023/09/08 06:14:51;;;;;;;0.00;0.00;;;;;;;21.26;100.00;101601.22;5098533;28;20024;-49
2023/09/08 06:17:17;;;;;;;0.00;0.00;;;;;;;21.04;100.00;101600.09;5109006;28;20023;-48
2023/09/08 06:19:42;;;;;;;0.00;0.00;;;;;;;20.85;100.00;101606.66;5102922;28;20144;-47
2023/09/08 06:22:07;;;;;;;0.00;0.00;;;;;;;20.64;100.00;101608.81;5100783;28;20032;-48
2023/09/08 06:24:33;;;;;;;0.00;0.00;;;;;;;20.51;100.00;101607.09;5076954;28;20110;-48
2023/09/08 06:26:58;;;;;;;0.00;0.00;;;;;;;20.46;100.00;101606.06;5094254;28;20032;-50
2023/09/08 06:29:23;;;;;;;0.00;0.00;;;;;;;20.46;100.00;101608.81;5103512;28;20050;-48
2023/09/08 06:31:49;;;;;;;0.00;0.00;;;;;;;20.45;100.00;101612.63;5114666;28;20020;-46
2023/09/08 06:34:14;;;;;;;0.00;0.00;;;;;;;20.36;100.00;101615.66;5108095;28;20532;-48
2023/09/08 06:36:40;;;;;;;0.00;0.00;;;;;;;20.39;100.00;101620.69;5096624;28;20115;-46
2023/09/08 06:39:05;;;;;;;0.00;0.00;;;;;;;20.43;100.00;101620.22;5104806;28;20028;-50
2023/09/08 06:41:30;;;;;;;0.00;0.00;;;;;;;20.56;100.00;101622.81;5113955;28;20127;-48
2023/09/08 06:43:56;;;;;;;0.00;0.00;;;;;;;20.62;100.00;101616.44;5101560;28;20024;-45
2023/09/08 06:46:21;;;;;;;0.00;0.00;;;;;;;20.72;100.00;101614.00;5106263;28;20078;-46
2023/09/08 06:48:46;;;;;;;0.00;0.00;;;;;;;20.83;100.00;101615.94;5111220;27;20106;-47
2023/09/08 06:51:12;;;;;;;0.00;0.00;;;;;;;21.53;100.00;101614.50;5098734;28;20024;-47
2023/09/08 06:53:38;;;;;;;0.00;0.00;;;;;;;22.68;100.00;101614.88;5111119;28;20032;-48
2023/09/08 06:56:03;;;;;;;0.00;0.00;;;;;;;23.87;100.00;101601.06;5102896;28;20019;-46
2023/09/08 06:58:28;;;;;;;0.00;0.00;;;;;;;24.96;100.00;101585.66;5105969;28;20023;-47
2023/09/08 07:00:54;;;;;;;0.00;0.00;;;;;;;25.91;100.00;101578.72;5112584;27;20047;-47
2023/09/08 07:03:22;;;;;;;0.00;0.00;;;;;;;26.64;100.00;101581.56;5111333;28;20059;-45
2023/09/08 07:05:48;;;;;;;0.00;0.00;;;;;;;27.23;100.00;101583.91;5096826;28;20038;-48
2023/09/08 07:08:13;;;;;;;0.00;0.00;;;;;;;27.42;100.00;101588.88;5102544;27;20023;-45
2023/09/08 07:10:38;;;;;;;0.00;0.00;;;;;;;27.81;100.00;101594.66;5098851;28;20045;-47
2023/09/08 07:13:04;;;;;;;0.00;0.00;;;;;;;27.90;100.00;101594.91;5098324;28;20070;-47
2023/09/08 07:15:29;;;;;;;0.00;0.00;;;;;;;28.26;100.00;101583.75;5100012;28;20060;-47
2023/09/08 07:17:55;;;;;;;0.00;0.00;;;;;;;28.94;100.00;101589.47;5109002;27;20032;-45
2023/09/08 07:20:20;;;;;;;0.00;0.00;;;;;;;29.22;100.00;101595.41;5112439;28;20413;-51
2023/09/08 07:22:47;;;;;;;0.00;0.00;;;;;;;29.52;100.00;101589.59;5127299;27;20031;-48
2023/09/08 07:25:12;;;;;;;0.00;0.00;;;;;;;29.89;100.00;101592.88;5132949;27;20037;-48
2023/09/08 07:27:37;;;;;;;0.00;0.00;;;;;;;30.51;100.00;101598.53;5092273;28;20027;-46
2023/09/08 07:30:03;;;;;;;0.00;0.00;;;;;;;31.10;99.60;101599.06;5091795;28;20021;-50
2023/09/08 07:32:29;;;;;;;0.00;0.00;;;;;;;31.01;97.66;101596.16;5108256;28;20054;-48
2023/09/08 07:34:54;;;;;;;0.00;0.00;;;;;;;31.20;99.01;101599.75;5112430;28;20028;-50
2023/09/08 07:37:23;;;;;;;0.00;0.00;;;;;;;30.77;97.14;101597.03;5112420;28;20108;-48
2023/09/08 07:39:52;;;;;;;0.00;0.00;;;;;;;30.90;98.07;101601.03;5111189;28;20383;-47
2023/09/08 07:42:17;;;;;;;0.00;0.00;;;;;;;31.57;95.90;101594.41;5112323;28;20529;-51
2023/09/08 07:44:42;;;;;;;0.00;0.00;;;;;;;31.69;97.00;101597.53;5111689;28;20104;-47
2023/09/08 07:47:08;;;;;;;0.00;0.00;;;;;;;31.64;93.66;101598.44;5112846;28;20397;-50
2023/09/08 07:49:34;;;;;;;0.00;0.00;;;;;;;30.76;96.16;101595.38;5112277;28;20427;-49
2023/09/08 07:51:59;;;;;;;0.00;0.00;;;;;;;30.81;97.67;101592.56;5111833;28;20039;-48
2023/09/08 07:54:25;;;;;;;0.00;0.00;;;;;;;30.17;99.38;101588.34;5112210;28;20020;-47
2023/09/08 07:56:50;;;;;;;0.00;0.00;;;;;;;30.01;100.00;101586.91;5110986;28;20074;-47
2023/09/08 07:59:15;;;;;;;0.00;0.00;;;;;;;29.70;100.00;101588.06;5111909;27;20534;-47
2023/09/08 08:01:41;;;;;;;0.00;0.00;;;;;;;29.90;100.00;101583.41;5111809;28;20382;-46
2023/09/08 08:04:06;;;;;;;0.00;0.00;;;;;;;30.89;99.70;101590.25;5112407;28;20313;-46
2023/09/08 08:06:31;;;;;;;0.00;0.00;;;;;;;31.28;98.68;101593.50;5111681;28;20046;-50
2023/09/08 08:08:57;;;;;;;0.00;0.00;;;;;;;31.21;97.75;101593.06;5111846;28;20448;-47
2023/09/08 08:11:22;;;;;;;0.00;0.00;;;;;;;31.34;98.04;101598.97;5111635;28;20031;-49
2023/09/08 08:13:48;;;;;;;0.00;0.00;;;;;;;32.42;95.47;101606.97;5111734;27;20028;-45
2023/09/08 08:16:13;;;;;;;0.00;0.00;;;;;;;33.08;91.50;101595.50;5111202;28;20376;-46
2023/09/08 08:18:39;;;;;;;0.00;0.00;;;;;;;33.62;89.96;101593.56;5111397;27;20035;-50
2023/09/08 08:21:04;;;;;;;0.00;0.00;;;;;;;33.60;87.25;101590.28;5111831;28;20023;-46
2023/09/08 08:23:30;;;;;;;0.00;0.00;;;;;;;33.90;87.14;101596.19;5111734;28;20061;-46
2023/09/08 08:25:56;;;;;;;0.00;0.00;;;;;;;33.80;87.84;101598.09;5111615;28;20030;-48
2023/09/08 08:28:22;;;;;;;0.00;0.00;;;;;;;34.03;88.34;101598.84;5104500;27;20382;-45
2023/09/08 08:30:47;;;;;;;0.00;0.00;;;;;;;33.28;86.93;101600.53;5111411;28;20047;-47
2023/09/08 08:33:13;;;;;;;0.00;0.00;;;;;;;33.27;86.64;101598.91;5111272;28;20024;-49
2023/09/08 08:35:39;;;;;;;0.00;0.00;;;;;;;33.23;88.50;101598.72;5111493;28;20027;-47
2023/09/08 08:38:05;;;;;;;0.00;0.00;;;;;;;33.15;86.80;101602.28;5111659;28;20462;-48
2023/09/08 08:40:31;;;;;;;0.00;0.00;;;;;;;33.38;87.59;101599.47;5111238;28;20371;-45
2023/09/08 08:42:57;;;;;;;0.00;0.00;;;;;;;33.91;85.13;101600.59;5110342;28;20065;-46
2023/09/08 08:45:24;;;;;;;0.00;0.00;;;;;;;34.46;83.70;101600.13;5108761;28;20494;-45
2023/09/08 08:47:50;;;;;;;0.00;0.00;;;;;;;34.84;80.65;101605.97;5099539;28;20452;-48
2023/09/08 08:50:17;;;;;;;0.00;0.00;;;;;;;35.04;80.67;101604.47;5111170;28;20027;-45
2023/09/08 08:52:43;;;;;;;0.00;0.00;;;;;;;34.90;80.16;101598.25;5097658;28;20028;-47
2023/09/08 08:55:08;;;;;;;0.00;0.00;;;;;;;35.38;78.97;101605.63;5103221;28;20020;-47
2023/09/08 08:57:37;;;;;;;0.00;0.00;;;;;;;35.10;78.50;101597.63;5098431;28;20103;-46
2023/09/08 09:00:07;;;;;;;0.00;0.00;;;;;;;35.50;79.68;101593.75;5077952;28;20059;-45
2023/09/08 09:02:33;;;;;;;0.00;0.00;;;;;;;35.85;78.82;101594.47;5099399;28;20048;-48
2023/09/08 09:04:59;;;;;;;0.00;0.00;;;;;;;35.79;75.33;101602.25;5105949;28;20113;-49
2023/09/08 09:07:26;;;;;;;0.00;0.00;;;;;;;35.67;77.58;101604.91;5103526;28;20034;-49
2023/09/08 09:09:51;;;;;;;0.00;0.00;;;;;;;36.06;76.08;101600.13;5104359;28;20031;-50
2023/09/08 09:12:17;;;;;;;0.00;0.00;;;;;;;36.68;74.34;101604.28;5102775;28;20042;-50
2023/09/08 09:14:47;;;;;;;0.00;0.00;;;;;;;36.57;72.22;101603.84;5105223;28;20035;-48
2023/09/08 09:17:14;;;;;;;0.00;0.00;;;;;;;35.47;75.28;101606.44;5104647;28;20478;-49
2023/09/08 09:19:39;;;;;;;0.00;0.00;;;;;;;35.39;77.34;101598.88;5103859;28;20020;-46
2023/09/08 09:22:05;;;;;;;0.00;0.00;;;;;;;34.58;79.25;101600.38;5101988;28;20107;-46
2023/09/08 09:24:34;;;;;;;0.10;0.00;;;;;;;34.86;79.18;101603.69;5105639;28;20134;-45
2023/09/08 09:27:04;;;;;;;0.00;0.00;;;;;;;35.13;79.10;101605.34;5105064;28;20458;-47
2023/09/08 09:29:29;;;;;;;0.00;0.00;;;;;;;34.61;78.44;101602.50;5105319;28;20058;-47
2023/09/08 09:32:03;;;;;;;0.00;0.00;;;;;;;34.74;79.98;101593.13;5105717;28;20039;-48
2023/09/08 09:34:28;;;;;;;0.00;0.00;;;;;;;35.25;78.83;101598.25;5103121;28;20043;-50
2023/09/08 09:36:53;;;;;;;0.00;0.00;;;;;;;35.42;76.91;101603.81;5105768;28;20027;-46
2023/09/08 09:39:24;;;;;;;0.00;0.00;;;;;;;35.79;78.30;101601.44;5105272;28;20043;-46
2023/09/08 09:41:53;;;;;;;0.00;0.00;;;;;;;35.45;75.80;101597.53;5105896;28;20089;-45
2023/09/08 09:44:19;;;;;;;0.00;0.00;;;;;;;34.81;79.28;101592.66;5104296;28;20108;-45
2023/09/08 09:46:45;;;;;;;0.00;0.00;;;;;;;33.93;81.40;101589.94;5103803;28;20072;-49
2023/09/08 09:49:13;;;;;;;0.00;0.00;;;;;;;33.63;84.27;101598.03;5102515;28;20369;-49
2023/09/08 09:51:50;;;;;;;0.00;0.00;;;;;;;33.58;83.38;101593.38;5101539;28;20470;-48
2023/09/08 09:54:16;;;;;;;0.00;0.00;;;;;;;33.22;84.04;101596.25;5103138;28;20497;-51
2023/09/08 09:56:44;;;;;;;0.00;0.00;;;;;;;33.19;85.76;101592.13;5103931;28;20041;-48
2023/09/08 09:59:12;;;;;;;0.00;0.00;;;;;;;32.53;88.69;101586.13;5102541;28;20446;-47
2023/09/08 10:01:38;;;;;;;0.00;0.00;;;;;;;32.07;92.64;101586.25;5099562;28;20579;-49
2023/09/08 10:04:05;;;;;;;0.00;0.00;;;;;;;31.89;92.64;101582.41;5103353;27;20380;-51
2023/09/08 10:06:34;;;;;;;0.00;0.00;;;;;;;31.56;95.11;101585.25;5100765;28;20426;-48
2023/09/08 10:09:04;;;;;;;0.00;0.00;;;;;;;31.27;95.33;101582.66;5105888;28;20084;-50
2023/09/08 10:11:30;;;;;;;0.00;0.00;;;;;;;30.63;97.33;101579.47;5108283;28;20075;-48
2023/09/08 10:13:58;;;;;;;0.00;0.00;;;;;;;30.67;98.88;101582.47;5105236;28;20385;-47
2023/09/08 10:16:27;;;;;;;0.00;0.00;;;;;;;30.62;100.00;101583.34;5107105;28;20498;-49
2023/09/08 10:18:53;;;;;;;0.00;0.00;;;;;;;30.55;100.00;101585.69;5108393;27;20047;-47
2023/09/08 10:21:19;;;;;;;0.00;0.00;;;;;;;30.31;100.00;101583.78;5107706;28;20128;-47
2023/09/08 10:23:53;;;;;;;0.00;0.00;;;;;;;30.40;100.00;101582.00;5105060;28;20046;-47
2023/09/08 10:26:22;;;;;;;0.00;0.00;;;;;;;30.53;100.00;101580.44;5108264;27;20571;-47
2023/09/08 10:28:48;;;;;;;0.00;0.00;;;;;;;30.56;100.00;101581.78;5103823;28;20518;-48
2023/09/08 10:31:13;;;;;;;0.00;0.00;;;;;;;30.33;100.00;101584.31;5105843;28;20124;-45
2023/09/08 10:33:39;;;;;;;0.05;0.00;;;;;;;30.17;99.96;101593.91;5104514;28;20031;-47
2023/09/08 10:36:05;;;;;;;0.00;0.00;;;;;;;30.17;99.91;101588.34;5102505;28;20051;-46
2023/09/08 10:38:33;;;;;;;0.00;0.00;;;;;;;30.16;100.00;101592.28;5106133;28;20030;-48
2023/09/08 10:41:22;;;;;;;0.00;0.00;;;;;;;30.14;100.00;101583.41;5099677;27;20174;-47
2023/09/08 10:44:00;;;;;;;0.00;0.00;;;;;;;30.31;98.64;101581.00;5103788;27;20043;-46
2023/09/08 10:46:27;;;;;;;0.00;0.00;;;;;;;30.42;97.23;101583.66;5106212;28;20106;-50
2023/09/08 10:48:54;;;;;;;0.00;0.00;;;;;;;30.28;98.39;101578.84;5107874;28;21039;-48
2023/09/08 10:51:21;;;;;;;;;;;;;;;30.33;99.92;101589.88;5108328;27;20046;-48
2023/09/08 10:53:46;;;;;;;;;;;;;;;29.93;97.55;101582.81;5105521;28;20008;-47
2023/09/08 10:56:12;;;;;;;0.00;0.00;;;;;;;29.77;96.28;101587.72;5107534;28;20036;-46
2023/09/08 10:58:42;;;;;;;0.00;0.00;;;;;;;29.82;97.03;101584.88;5106418;28;20398;-48
2023/09/08 11:01:16;;;;;;;0.00;0.00;;;;;;;30.00;95.69;101582.47;5106688;27;20502;-49
2023/09/08 11:03:41;;;;;;;0.00;0.00;;;;;;;30.17;96.78;101589.19;5106251;27;20055;-49
2023/09/08 11:06:11;;;;;;;0.00;0.00;;;;;;;30.34;96.51;101585.97;5101817;28;20039;-48
2023/09/08 11:08:45;;;;;;;0.00;0.00;;;;;;;30.65;93.88;101590.25;5106181;28;20031;-47
2023/09/08 11:11:12;;;;;;;0.00;0.00;;;;;;;31.02;90.69;101595.88;5109368;27;20032;-46
2023/09/08 11:13:39;;;;;;;0.00;0.00;;;;;;;31.51;87.11;101593.69;5107031;27;20027;-44